Weather observations for the past three days for
Fullerton, Fullerton Municipal Airport
Metric (Imperial)
Date Time (pdt) Wind (kph) Vis. (km) Weather Sky Cond. Temperature (ºC) Relative Humidity Wind Chill (°C) Heat Index (°C) Pressure Precipitation (cm)
Air Dwpt 6 hour altimeter (cm) sea level (mb) 1 hr 3 hr 6 hr
Max. Min.
10 08:53 Calm 16.09 Mostly Cloudy BKN016 18.3 13.9 76% 76 1012.9
10 07:53 Calm 16.09 Overcast OVC016 17.2 13.3 78% 75.97 1012.8
10 06:53 Calm 16.09 Overcast OVC015 16.7 13.3 80% 75.97 1012.6
10 05:53 Calm 16.09 Overcast OVC015 16.7 13.3 80% 75.92 1012.2
10 04:53 Calm 16.09 Overcast OVC013 16.7 13.3 16.7 16.1 80% 75.95 1012.2
10 03:53 Calm 16.09 Overcast OVC012 16.7 13.9 84% 75.95 1012.2
10 02:53 Calm 16.09 Overcast OVC011 16.7 14.4 86% 75.95 1012.3
10 01:53 Calm 16.09 Overcast OVC010 16.7 13.9 84% 75.95 1012.4
10 00:53 S 7 16.09 Overcast OVC010 16.1 13.9 87% 75.97 1012.8
09 23:53 SE 7 14.48 Overcast OVC010 16.7 13.9 84% 76 1012.9
09 22:53 S 9 16.09 Overcast OVC012 16.1 13.9 23.9 16.1 87% 76 1013.0
09 21:53 S 11 16.09 A Few Clouds FEW013 16.7 13.9 84% 76 1012.9
09 20:53 SE 9 16.09 Fair CLR 17.2 13.9 81% 75.95 1012.4
09 19:53 S 9 16.09 Fair CLR 18.3 14.4 78% 75.9 1011.6
09 18:53 Vrbl 9 16.09 Fair CLR 20.6 14.4 68% 75.84 1011.1
09 17:53 S 15 16.09 Fair CLR 22.2 14.4 61% 75.82 1010.8
09 16:53 S 11 16.09 Fair CLR 23.9 14.4 25 21.1 55% 25 75.82 1010.7
09 15:53 SW 11 16.09 Fair CLR 24.4 14.4 54% 26 75.82 1010.8
09 14:53 S 11 16.09 Fair CLR 24.4 14.4 54% 26 75.87 1011.4
09 13:53 SW 13 16.09 Fair CLR 24.4 14.4 54% 26 75.92 1011.9
09 12:53 Calm 16.09 Fair CLR 23.3 14.4 57% 75.95 1012.5
09 11:53 Vrbl 7 16.09 Fair CLR 22.8 14.4 59% 76 1013.0
09 10:53 Vrbl 9 16.09 Fair CLR 21.1 14.4 21.7 16.7 66% 76.02 1013.3
09 09:53 Vrbl 6 14.48 Overcast OVC018 19.4 14.4 73% 76.02 1013.3
09 08:53 Calm 14.48 Overcast OVC015 17.8 13.9 78% 76.02 1013.5
09 07:53 Calm 12.87 Overcast OVC014 17.2 13.9 81% 76.02 1013.5
09 06:53 Calm 11.27 Overcast OVC012 16.7 13.9 84% 76.02 1013.2
09 05:53 Calm 16.09 Overcast OVC012 16.7 13.9 84% 75.97 1012.8
09 04:53 S 6 16.09 Overcast OVC012 16.7 13.9 17.2 16.1 84% 76 1012.9
09 03:53 Calm 14.48 Overcast OVC011 16.7 13.9 84% 76 1012.9
09 02:53 Calm 16.09 Overcast OVC010 16.7 13.9 84% 76 1013.1
09 01:53 SE 6 16.09 Overcast OVC010 16.7 13.9 84% 76.02 1013.5
09 00:53 Vrbl 6 14.48 Overcast OVC011 16.7 14.4 86% 76.07 1013.9
08 23:53 S 6 14.48 Overcast OVC012 17.2 14.4 84% 76.07 1014.1
08 22:53 SE 7 16.09 Overcast OVC014 17.2 14.4 22.8 17.2 84% 76.07 1014.2
08 21:53 Calm 16.09 Overcast OVC016 17.2 13.9 81% 76.1 1014.2
08 20:53 W 6 16.09 Mostly Cloudy BKN018 17.8 13.9 78% 76.05 1013.6
08 19:53 S 13 16.09 Fair CLR 18.9 14.4 75% 76 1013.0
08 18:53 S 11 16.09 Fair CLR 20 13.9 68% 75.97 1012.6
08 17:53 S 13 16.09 Fair CLR 21.1 14.4 66% 75.97 1012.6
08 16:53 S 13 16.09 Fair CLR 22.8 13.9 24.4 18.3 57% 75.97 1012.5
08 15:53 SW 11 16.09 Fair CLR 23.9 14.4 55% 25 76 1013.0
08 14:53 SW 13 16.09 Fair CLR 23.9 14.4 55% 25 76.05 1013.7
08 13:53 Vrbl 7 16.09 Fair CLR 22.2 14.4 61% 76.1 1014.2
08 12:53 Vrbl 7 16.09 Fair CLR 21.7 14.4 63% 76.12 1014.8
08 11:53 Vrbl 6 16.09 Overcast OVC021 20.6 13.9 66% 76.17 1015.6
08 10:53 Calm 16.09 Overcast OVC017 18.9 13.9 18.9 16.7 73% 76.23 1016.0
08 09:53 Calm 16.09 Overcast OVC015 17.8 13.9 78% 76.23 1016.2
08 08:53 Calm 16.09 Overcast OVC013 17.2 13.9 81% 76.23 1016.0
08 07:53 E 7 16.09 Overcast OVC013 16.7 13.9 84% 76.23 1016.2
08 06:53 Calm 16.09 Overcast OVC012 16.7 13.9 84% 76.2 1015.9
08 05:53 SE 7 16.09 Overcast OVC012 16.7 13.9 84% 76.17 1015.5
08 04:53 S 9 16.09 Overcast OVC013 16.7 13.9 16.7 16.1 84% 76.15 1015.2
08 03:53 Calm 16.09 Overcast OVC012 16.7 13.9 84% 76.15 1015.1
08 02:53 Calm 16.09 Overcast OVC012 16.7 13.9 84% 76.15 1015.2
08 01:53 S 6 16.09 Overcast OVC012 16.7 13.3 80% 76.17 1015.4
08 00:53 SE 6 16.09 Overcast OVC012 16.1 13.9 87% 76.23 1015.9
07 23:53 S 7 16.09 Overcast OVC011 16.1 13.9 87% 76.23 1016.0
07 22:53 S 9 16.09 Fair CLR 16.1 13.9 23.3 16.1 87% 76.2 1015.8
07 21:53 SE 11 16.09 Fair CLR 16.7 13.9 84% 76.2 1015.6
07 20:53 S 9 16.09 Fair CLR 17.2 13.9 81% 76.12 1014.9
07 19:53 S 11 16.09 Fair CLR 17.8 13.9 78% 76.07 1014.0
07 18:53 S 13 16.09 Fair CLR 20 13.3 65% 76.02 1013.3
07 17:53 S 13 16.09 Fair CLR 22.2 13.3 57% 76 1013.1
07 16:53 S 15 16.09 Fair CLR 23.3 13.3 24.4 21.7 54% 76 1013.1
07 15:53 S 15 16.09 Fair CLR 23.9 13.3 52% 25 76.02 1013.3
07 14:53 S 15 16.09 Fair CLR 23.9 13.3 52% 25 76.05 1013.9
07 13:53 S 13 16.09 Fair CLR 23.3 13.3 54% 76.1 1014.3
07 12:53 SW 11 16.09 Fair CLR 23.3 13.3 54% 76.12 1014.9
07 11:53 S 9 16.09 Fair CLR 22.8 13.3 55% 76.17 1015.4
07 10:53 Vrbl 6 16.09 Fair CLR 22.2 12.8 22.2 13.9 55% 76.2 1015.8
07 09:53 Calm 16.09 Fair CLR 20.6 12.2 59% 76.23 1016.0
Date Time (pdt) Wind (kph) Vis. (km) Weather Sky Cond. Air Dwpt Max. Min. Relative Humidity Wind Chill (°C) Heat Index (°C) altimeter (cm) sea level (mb) 1 hr 3 hr 6 hr
6 hour
Temperature (ºC) Pressure Precipitation (cm)